sensor_id;sensor_type;location;lat;lon;timestamp;pressure;altitude;pressure_sealevel;temperature;humidity
27220;BME280;45274;52.266;10.790;2023-11-21T00:01:15;99650.38;;;7.34;100.00
27220;BME280;45274;52.266;10.790;2023-11-21T00:03:40;99650.97;;;7.37;100.00
27220;BME280;45274;52.266;10.790;2023-11-21T00:06:06;99657.78;;;7.37;100.00
27220;BME280;45274;52.266;10.790;2023-11-21T00:08:35;99665.59;;;7.35;100.00
27220;BME280;45274;52.266;10.790;2023-11-21T00:11:01;99661.25;;;7.36;100.00
27220;BME280;45274;52.266;10.790;2023-11-21T00:13:26;99660.25;;;7.38;100.00
27220;BME280;45274;52.266;10.790;2023-11-21T00:15:52;99659.44;;;7.38;100.00
27220;BME280;45274;52.266;10.790;2023-11-21T00:18:17;99660.25;;;7.38;100.00
27220;BME280;45274;52.266;10.790;2023-11-21T00:20:43;99657.06;;;7.46;100.00
27220;BME280;45274;52.266;10.790;2023-11-21T00:23:08;99665.09;;;7.41;100.00
27220;BME280;45274;52.266;10.790;2023-11-21T00:25:35;99663.03;;;7.35;100.00
27220;BME280;45274;52.266;10.790;2023-11-21T00:28:00;99655.91;;;7.39;100.00
27220;BME280;45274;52.266;10.790;2023-11-21T00:30:27;99658.72;;;7.36;100.00
27220;BME280;45274;52.266;10.790;2023-11-21T00:32:53;99662.88;;;7.37;100.00
27220;BME280;45274;52.266;10.790;2023-11-21T00:35:18;99667.56;;;7.32;100.00
27220;BME280;45274;52.266;10.790;2023-11-21T00:37:43;99667.19;;;7.36;100.00
27220;BME280;45274;52.266;10.790;2023-11-21T00:40:09;99662.22;;;7.35;100.00
27220;BME280;45274;52.266;10.790;2023-11-21T00:42:35;99673.91;;;7.37;100.00
27220;BME280;45274;52.266;10.790;2023-11-21T00:45:00;99672.50;;;7.33;100.00
27220;BME280;45274;52.266;10.790;2023-11-21T00:47:26;99679.63;;;7.30;100.00
27220;BME280;45274;52.266;10.790;2023-11-21T00:49:51;99670.91;;;7.32;100.00
27220;BME280;45274;52.266;10.790;2023-11-21T00:52:16;99675.88;;;7.34;100.00
27220;BME280;45274;52.266;10.790;2023-11-21T00:54:42;99678.09;;;7.27;100.00
27220;BME280;45274;52.266;10.790;2023-11-21T00:57:07;99680.16;;;7.33;100.00
27220;BME280;45274;52.266;10.790;2023-11-21T00:59:34;99687.47;;;7.38;100.00
27220;BME280;45274;52.266;10.790;2023-11-21T01:02:00;99691.31;;;7.32;100.00
27220;BME280;45274;52.266;10.790;2023-11-21T01:04:27;99690.06;;;7.27;100.00
27220;BME280;45274;52.266;10.790;2023-11-21T01:06:52;99687.63;;;7.25;100.00
27220;BME280;45274;52.266;10.790;2023-11-21T01:09:18;99692.59;;;7.27;100.00
27220;BME280;45274;52.266;10.790;2023-11-21T01:11:44;99706.13;;;7.27;100.00
27220;BME280;45274;52.266;10.790;2023-11-21T01:14:09;99701.28;;;7.24;100.00
27220;BME280;45274;52.266;10.790;2023-11-21T01:16:36;99697.00;;;7.25;100.00
27220;BME280;45274;52.266;10.790;2023-11-21T01:19:01;99703.81;;;7.24;100.00
27220;BME280;45274;52.266;10.790;2023-11-21T01:21:27;99703.38;;;7.19;100.00
27220;BME280;45274;52.266;10.790;2023-11-21T01:23:53;99698.28;;;7.19;100.00
27220;BME280;45274;52.266;10.790;2023-11-21T01:26:20;99707.91;;;7.16;100.00
27220;BME280;45274;52.266;10.790;2023-11-21T01:28:45;99705.50;;;7.14;100.00
27220;BME280;45274;52.266;10.790;2023-11-21T01:31:14;99703.63;;;7.16;100.00
27220;BME280;45274;52.266;10.790;2023-11-21T01:33:40;99704.91;;;7.11;100.00
27220;BME280;45274;52.266;10.790;2023-11-21T01:36:05;99704.81;;;7.12;100.00
27220;BME280;45274;52.266;10.790;2023-11-21T01:38:31;99706.31;;;7.15;100.00
27220;BME280;45274;52.266;10.790;2023-11-21T01:40:57;99704.91;;;7.11;100.00
27220;BME280;45274;52.266;10.790;2023-11-21T01:43:23;99708.81;;;7.26;100.00
27220;BME280;45274;52.266;10.790;2023-11-21T01:45:49;99712.06;;;7.17;100.00
27220;BME280;45274;52.266;10.790;2023-11-21T01:48:14;99712.06;;;7.17;100.00
27220;BME280;45274;52.266;10.790;2023-11-21T01:50:42;99717.50;;;7.23;100.00
27220;BME280;45274;52.266;10.790;2023-11-21T01:53:07;99725.41;;;7.20;100.00
27220;BME280;45274;52.266;10.790;2023-11-21T01:55:33;99721.47;;;7.16;100.00
27220;BME280;45274;52.266;10.790;2023-11-21T01:57:59;99724.34;;;7.23;100.00
27220;BME280;45274;52.266;10.790;2023-11-21T02:00:25;99727.56;;;7.25;100.00
27220;BME280;45274;52.266;10.790;2023-11-21T02:02:53;99723.66;;;7.21;100.00
27220;BME280;45274;52.266;10.790;2023-11-21T02:05:19;99722.38;;;7.26;100.00
27220;BME280;45274;52.266;10.790;2023-11-21T02:07:46;99726.66;;;7.26;100.00
27220;BME280;45274;52.266;10.790;2023-11-21T02:10:13;99736.84;;;7.26;100.00
27220;BME280;45274;52.266;10.790;2023-11-21T02:12:43;99730.84;;;7.16;100.00
27220;BME280;45274;52.266;10.790;2023-11-21T02:15:13;99734.78;;;7.20;100.00
27220;BME280;45274;52.266;10.790;2023-11-21T02:17:46;99736.28;;;7.22;100.00
27220;BME280;45274;52.266;10.790;2023-11-21T02:20:17;99736.50;;;7.19;100.00
27220;BME280;45274;52.266;10.790;2023-11-21T02:23:03;99743.81;;;7.24;100.00
27220;BME280;45274;52.266;10.790;2023-11-21T02:25:31;99740.69;;;7.20;100.00
27220;BME280;45274;52.266;10.790;2023-11-21T02:27:59;99747.28;;;7.23;100.00
27220;BME280;45274;52.266;10.790;2023-11-21T02:30:26;99746.25;;;7.14;100.00
27220;BME280;45274;52.266;10.790;2023-11-21T02:32:53;99750.31;;;7.17;100.00
27220;BME280;45274;52.266;10.790;2023-11-21T02:35:19;99740.69;;;7.20;100.00
27220;BME280;45274;52.266;10.790;2023-11-21T02:37:47;99743.22;;;7.20;100.00
27220;BME280;45274;52.266;10.790;2023-11-21T02:40:12;99742.19;;;7.23;100.00
27220;BME280;45274;52.266;10.790;2023-11-21T02:42:39;99746.69;;;7.19;100.00
27220;BME280;45274;52.266;10.790;2023-11-21T02:45:06;99740.22;;;7.26;100.00
27220;BME280;45274;52.266;10.790;2023-11-21T02:47:31;99750.19;;;7.18;100.00
27220;BME280;45274;52.266;10.790;2023-11-21T02:49:57;99744.28;;;7.18;100.00
27220;BME280;45274;52.266;10.790;2023-11-21T02:52:22;99750.03;;;7.31;100.00
27220;BME280;45274;52.266;10.790;2023-11-21T02:54:47;99749.22;;;7.30;100.00
27220;BME280;45274;52.266;10.790;2023-11-21T02:57:13;99747.41;;;7.21;100.00
27220;BME280;45274;52.266;10.790;2023-11-21T02:59:38;99744.50;;;7.26;100.00
27220;BME280;45274;52.266;10.790;2023-11-21T03:02:04;99751.69;;;7.21;100.00
27220;BME280;45274;52.266;10.790;2023-11-21T03:04:29;99761.31;;;7.17;100.00
27220;BME280;45274;52.266;10.790;2023-11-21T03:06:57;99763.50;;;7.22;100.00
27220;BME280;45274;52.266;10.790;2023-11-21T03:09:23;99763.97;;;7.27;100.00
27220;BME280;45274;52.266;10.790;2023-11-21T03:11:48;99764.28;;;7.33;100.00
27220;BME280;45274;52.266;10.790;2023-11-21T03:14:14;99766.97;;;7.32;100.00
27220;BME280;45274;52.266;10.790;2023-11-21T03:16:39;99766.38;;;7.28;100.00
27220;BME280;45274;52.266;10.790;2023-11-21T03:19:06;99775.19;;;7.35;100.00
27220;BME280;45274;52.266;10.790;2023-11-21T03:21:33;99772.06;;;7.32;100.00
27220;BME280;45274;52.266;10.790;2023-11-21T03:23:58;99784.22;;;7.28;100.00
27220;BME280;45274;52.266;10.790;2023-11-21T03:26:25;99779.22;;;7.38;100.00
27220;BME280;45274;52.266;10.790;2023-11-21T03:28:50;99780.63;;;7.31;100.00
27220;BME280;45274;52.266;10.790;2023-11-21T03:31:19;99780.63;;;7.31;100.00
27220;BME280;45274;52.266;10.790;2023-11-21T03:33:45;99781.34;;;7.33;100.00
27220;BME280;45274;52.266;10.790;2023-11-21T03:36:11;99781.34;;;7.33;100.00
27220;BME280;45274;52.266;10.790;2023-11-21T03:38:36;99790.00;;;7.30;100.00
27220;BME280;45274;52.266;10.790;2023-11-21T03:41:02;99784.22;;;7.28;100.00
27220;BME280;45274;52.266;10.790;2023-11-21T03:43:27;99786.53;;;7.31;100.00
27220;BME280;45274;52.266;10.790;2023-11-21T03:45:53;99783.16;;;7.31;100.00
27220;BME280;45274;52.266;10.790;2023-11-21T03:48:18;99798.13;;;7.24;100.00
27220;BME280;45274;52.266;10.790;2023-11-21T03:50:43;99798.94;;;7.25;100.00
27220;BME280;45274;52.266;10.790;2023-11-21T03:53:09;99802.28;;;7.36;100.00
27220;BME280;45274;52.266;10.790;2023-11-21T03:55:34;99807.84;;;7.30;100.00
27220;BME280;45274;52.266;10.790;2023-11-21T03:57:59;99809.38;;;7.33;100.00
27220;BME280;45274;52.266;10.790;2023-11-21T04:00:25;99798.47;;;7.31;100.00
27220;BME280;45274;52.266;10.790;2023-11-21T04:02:52;99809.00;;;7.37;100.00
27220;BME280;45274;52.266;10.790;2023-11-21T04:05:20;99816.06;;;7.34;100.00
27220;BME280;45274;52.266;10.790;2023-11-21T04:07:45;99806.69;;;7.34;100.00
27220;BME280;45274;52.266;10.790;2023-11-21T04:10:10;99811.78;;;7.34;100.00
27220;BME280;45274;52.266;10.790;2023-11-21T04:12:38;99813.63;;;7.43;100.00
27220;BME280;45274;52.266;10.790;2023-11-21T04:15:03;99816.88;;;7.34;100.00
27220;BME280;45274;52.266;10.790;2023-11-21T04:17:29;99820.59;;;7.30;100.00
27220;BME280;45274;52.266;10.790;2023-11-21T04:19:54;99827.91;;;7.35;100.00
27220;BME280;45274;52.266;10.790;2023-11-21T04:22:20;99825.59;;;7.32;100.00
27220;BME280;45274;52.266;10.790;2023-11-21T04:24:46;99827.53;;;7.28;100.00
27220;BME280;45274;52.266;10.790;2023-11-21T04:27:11;99822.13;;;7.33;100.00
27220;BME280;45274;52.266;10.790;2023-11-21T04:29:38;99825.44;;;7.33;100.00
27220;BME280;45274;52.266;10.790;2023-11-21T04:32:03;99830.09;;;7.28;100.00
27220;BME280;45274;52.266;10.790;2023-11-21T04:34:29;99834.84;;;7.33;100.00
27220;BME280;45274;52.266;10.790;2023-11-21T04:36:56;99836.47;;;7.34;100.00
27220;BME280;45274;52.266;10.790;2023-11-21T04:39:22;99832.41;;;7.31;100.00
27220;BME280;45274;52.266;10.790;2023-11-21T04:41:47;99841.22;;;7.27;100.00
27220;BME280;45274;52.266;10.790;2023-11-21T04:44:13;99843.88;;;7.26;100.00
27220;BME280;45274;52.266;10.790;2023-11-21T04:46:38;99848.38;;;7.33;100.00
27220;BME280;45274;52.266;10.790;2023-11-21T04:49:03;99850.47;;;7.39;100.00
27220;BME280;45274;52.266;10.790;2023-11-21T04:51:29;99857.09;;;7.31;100.00
27220;BME280;45274;52.266;10.790;2023-11-21T04:53:54;99856.50;;;7.27;100.00
27220;BME280;45274;52.266;10.790;2023-11-21T04:56:19;99852.09;;;7.40;100.00
27220;BME280;45274;52.266;10.790;2023-11-21T04:58:45;99863.00;;;7.31;100.00
27220;BME280;45274;52.266;10.790;2023-11-21T05:01:10;99863.69;;;7.33;100.00
27220;BME280;45274;52.266;10.790;2023-11-21T05:03:37;99868.31;;;7.39;100.00
27220;BME280;45274;52.266;10.790;2023-11-21T05:06:03;99873.19;;;7.31;100.00
27220;BME280;45274;52.266;10.790;2023-11-21T05:08:30;99875.97;;;7.28;100.00
27220;BME280;45274;52.266;10.790;2023-11-21T05:10:56;99876.91;;;7.27;100.00
27220;BME280;45274;52.266;10.790;2023-11-21T05:13:22;99879.56;;;7.26;100.00
27220;BME280;45274;52.266;10.790;2023-11-21T05:15:47;99882.56;;;7.31;100.00
27220;BME280;45274;52.266;10.790;2023-11-21T05:18:12;99888.84;;;7.27;100.00
27220;BME280;45274;52.266;10.790;2023-11-21T05:20:41;99878.75;;;7.25;100.00
27220;BME280;45274;52.266;10.790;2023-11-21T05:23:07;99889.63;;;7.27;100.00
27220;BME280;45274;52.266;10.790;2023-11-21T05:25:33;99889.75;;;7.26;100.00
27220;BME280;45274;52.266;10.790;2023-11-21T05:27:59;99893.94;;;7.27;100.00
27220;BME280;45274;52.266;10.790;2023-11-21T05:30:26;99896.38;;;7.28;100.00
27220;BME280;45274;52.266;10.790;2023-11-21T05:32:52;99895.91;;;7.23;100.00
27220;BME280;45274;52.266;10.790;2023-11-21T05:35:17;99902.59;;;7.24;100.00
27220;BME280;45274;52.266;10.790;2023-11-21T05:37:43;99902.38;;;7.27;100.00
27220;BME280;45274;52.266;10.790;2023-11-21T05:40:09;99895.78;;;7.25;100.00
27220;BME280;45274;52.266;10.790;2023-11-21T05:42:36;99905.16;;;7.24;100.00
27220;BME280;45274;52.266;10.790;2023-11-21T05:45:03;99908.53;;;7.25;100.00
27220;BME280;45274;52.266;10.790;2023-11-21T05:47:39;99909.56;;;7.22;100.00
27220;BME280;45274;52.266;10.790;2023-11-21T05:50:06;99915.72;;;7.20;100.00
27220;BME280;45274;52.266;10.790;2023-11-21T05:52:35;99915.25;;;7.15;100.00
27220;BME280;45274;52.266;10.790;2023-11-21T05:55:00;99923.22;;;6.99;100.00
27220;BME280;45274;52.266;10.790;2023-11-21T05:57:26;99934.06;;;6.90;100.00
27220;BME280;45274;52.266;10.790;2023-11-21T05:59:51;99931.28;;;6.82;100.00
27220;BME280;45274;52.266;10.790;2023-11-21T06:02:17;99940.88;;;6.78;100.00
27220;BME280;45274;52.266;10.790;2023-11-21T06:04:43;99944.88;;;6.59;100.00
27220;BME280;45274;52.266;10.790;2023-11-21T06:07:08;99949.00;;;6.49;100.00
27220;BME280;45274;52.266;10.790;2023-11-21T06:09:35;99959.19;;;6.25;100.00
27220;BME280;45274;52.266;10.790;2023-11-21T06:12:00;99963.81;;;6.20;100.00
27220;BME280;45274;52.266;10.790;2023-11-21T06:14:26;99970.03;;;6.03;100.00
27220;BME280;45274;52.266;10.790;2023-11-21T06:16:51;99973.25;;;5.94;100.00
27220;BME280;45274;52.266;10.790;2023-11-21T06:19:17;99978.94;;;5.85;100.00
27220;BME280;45274;52.266;10.790;2023-11-21T06:21:46;99982.50;;;5.83;100.00
27220;BME280;45274;52.266;10.790;2023-11-21T06:24:12;99987.88;;;5.78;100.00
27220;BME280;45274;52.266;10.790;2023-11-21T06:26:37;99990.31;;;5.80;100.00
27220;BME280;45274;52.266;10.790;2023-11-21T06:29:03;100000.78;;;5.75;100.00
27220;BME280;45274;52.266;10.790;2023-11-21T06:31:29;100004.28;;;5.74;100.00
27220;BME280;45274;52.266;10.790;2023-11-21T06:33:55;100006.00;;;5.73;100.00
27220;BME280;45274;52.266;10.790;2023-11-21T06:36:20;100009.44;;;5.72;100.00
27220;BME280;45274;52.266;10.790;2023-11-21T06:38:46;100015.34;;;5.73;100.00
27220;BME280;45274;52.266;10.790;2023-11-21T06:41:11;100024.81;;;5.71;100.00
27220;BME280;45274;52.266;10.790;2023-11-21T06:43:40;100024.91;;;5.69;100.00
27220;BME280;45274;52.266;10.790;2023-11-21T06:46:05;100024.00;;;5.70;100.00
27220;BME280;45274;52.266;10.790;2023-11-21T06:48:31;100024.41;;;5.64;100.00
27220;BME280;45274;52.266;10.790;2023-11-21T06:50:56;100026.94;;;5.64;100.00
27220;BME280;45274;52.266;10.790;2023-11-21T06:53:22;100036.28;;;5.64;100.00
27220;BME280;45274;52.266;10.790;2023-11-21T06:55:47;100038.97;;;5.62;100.00
27220;BME280;45274;52.266;10.790;2023-11-21T06:58:12;100035.69;;;5.60;100.00
27220;BME280;45274;52.266;10.790;2023-11-21T07:00:39;100048.50;;;5.59;100.00
27220;BME280;45274;52.266;10.790;2023-11-21T07:03:05;100045.47;;;5.54;100.00
27220;BME280;45274;52.266;10.790;2023-11-21T07:05:30;100055.63;;;5.54;100.00
27220;BME280;45274;52.266;10.790;2023-11-21T07:07:56;100048.09;;;5.52;100.00
27220;BME280;45274;52.266;10.790;2023-11-21T07:10:21;100060.72;;;5.54;100.00
27220;BME280;45274;52.266;10.790;2023-11-21T07:12:47;100054.19;;;5.50;100.00
27220;BME280;45274;52.266;10.790;2023-11-21T07:15:12;100070.53;;;5.46;100.00
27220;BME280;45274;52.266;10.790;2023-11-21T07:17:38;100072.88;;;5.49;100.00
27220;BME280;45274;52.266;10.790;2023-11-21T07:20:05;100084.88;;;5.47;100.00
27220;BME280;45274;52.266;10.790;2023-11-21T07:22:32;100080.31;;;5.52;100.00
27220;BME280;45274;52.266;10.790;2023-11-21T07:24:57;100086.72;;;5.45;100.00
27220;BME280;45274;52.266;10.790;2023-11-21T07:27:23;100091.81;;;5.45;100.00
27220;BME280;45274;52.266;10.790;2023-11-21T07:29:48;100096.91;;;5.45;100.00
27220;BME280;45274;52.266;10.790;2023-11-21T07:32:14;100095.25;;;5.44;100.00
27220;BME280;45274;52.266;10.790;2023-11-21T07:34:40;100097.91;;;5.42;100.00
27220;BME280;45274;52.266;10.790;2023-11-21T07:37:07;100100.09;;;5.34;100.00
27220;BME280;45274;52.266;10.790;2023-11-21T07:39:34;100115.34;;;5.34;100.00
27220;BME280;45274;52.266;10.790;2023-11-21T07:42:01;100116.94;;;5.23;100.00
27220;BME280;45274;52.266;10.790;2023-11-21T07:44:28;100123.97;;;5.19;100.00
27220;BME280;45274;52.266;10.790;2023-11-21T07:46:53;100125.69;;;5.19;100.00
27220;BME280;45274;52.266;10.790;2023-11-21T07:49:23;100133.50;;;5.15;100.00
27220;BME280;45274;52.266;10.790;2023-11-21T07:51:48;100138.72;;;5.27;100.00
27220;BME280;45274;52.266;10.790;2023-11-21T07:54:14;100142.16;;;5.26;100.00
27220;BME280;45274;52.266;10.790;2023-11-21T07:56:39;100146.03;;;5.31;100.00
27220;BME280;45274;52.266;10.790;2023-11-21T07:59:04;100159.88;;;5.27;100.00
27220;BME280;45274;52.266;10.790;2023-11-21T08:01:30;100149.78;;;5.26;100.00
27220;BME280;45274;52.266;10.790;2023-11-21T08:03:57;100155.78;;;5.25;100.00
27220;BME280;45274;52.266;10.790;2023-11-21T08:06:26;100162.41;;;5.27;100.00
27220;BME280;45274;52.266;10.790;2023-11-21T08:08:52;100172.44;;;5.29;100.00
27220;BME280;45274;52.266;10.790;2023-11-21T08:11:17;100174.53;;;5.36;100.00
27220;BME280;45274;52.266;10.790;2023-11-21T08:13:43;100175.03;;;5.41;100.00
27220;BME280;45274;52.266;10.790;2023-11-21T08:16:08;100180.94;;;5.42;100.00
27220;BME280;45274;52.266;10.790;2023-11-21T08:18:33;100181.22;;;5.37;100.00
27220;BME280;45274;52.266;10.790;2023-11-21T08:20:59;100186.22;;;5.39;100.00
27220;BME280;45274;52.266;10.790;2023-11-21T08:23:25;100192.00;;;5.41;100.00
27220;BME280;45274;52.266;10.790;2023-11-21T08:25:52;100200.34;;;5.43;100.00
27220;BME280;45274;52.266;10.790;2023-11-21T08:28:18;100209.53;;;5.45;100.00
27220;BME280;45274;52.266;10.790;2023-11-21T08:30:43;100212.66;;;5.49;100.00
27220;BME280;45274;52.266;10.790;2023-11-21T08:33:09;100226.84;;;5.53;100.00
27220;BME280;45274;52.266;10.790;2023-11-21T08:35:35;100215.66;;;5.55;100.00
27220;BME280;45274;52.266;10.790;2023-11-21T08:38:02;100219.25;;;5.65;100.00
27220;BME280;45274;52.266;10.790;2023-11-21T08:40:28;100226.38;;;5.73;100.00
27220;BME280;45274;52.266;10.790;2023-11-21T08:42:54;100223.91;;;5.71;100.00
27220;BME280;45274;52.266;10.790;2023-11-21T08:45:20;100228.41;;;5.68;100.00
27220;BME280;45274;52.266;10.790;2023-11-21T08:47:47;100227.78;;;5.64;100.00
27220;BME280;45274;52.266;10.790;2023-11-21T08:50:12;100232.38;;;5.72;100.00
27220;BME280;45274;52.266;10.790;2023-11-21T08:52:41;100241.06;;;5.82;100.00
27220;BME280;45274;52.266;10.790;2023-11-21T08:55:10;100251.69;;;5.74;100.00
27220;BME280;45274;52.266;10.790;2023-11-21T08:57:38;100253.13;;;5.79;100.00
27220;BME280;45274;52.266;10.790;2023-11-21T09:00:06;100264.13;;;5.79;100.00
27220;BME280;45274;52.266;10.790;2023-11-21T09:02:40;100270.31;;;5.75;100.00
27220;BME280;45274;52.266;10.790;2023-11-21T09:05:12;100275.50;;;5.73;100.00
27220;BME280;45274;52.266;10.790;2023-11-21T09:07:39;100275.69;;;5.70;100.00
27220;BME280;45274;52.266;10.790;2023-11-21T09:10:06;100270.31;;;5.75;100.00
27220;BME280;45274;52.266;10.790;2023-11-21T09:12:33;100276.75;;;5.81;100.00
27220;BME280;45274;52.266;10.790;2023-11-21T09:14:58;100272.72;;;5.64;100.00
27220;BME280;45274;52.266;10.790;2023-11-21T09:17:24;100282.50;;;5.70;100.00
27220;BME280;45274;52.266;10.790;2023-11-21T09:19:49;100284.72;;;5.62;100.00
27220;BME280;45274;52.266;10.790;2023-11-21T09:22:17;100293.00;;;5.78;100.00
27220;BME280;45274;52.266;10.790;2023-11-21T09:24:43;100293.31;;;5.73;100.00
27220;BME280;45274;52.266;10.790;2023-11-21T09:27:09;100296.94;;;5.69;100.00
27220;BME280;45274;52.266;10.790;2023-11-21T09:29:35;100300.31;;;5.70;100.00
27220;BME280;45274;52.266;10.790;2023-11-21T09:32:00;100305.09;;;5.74;100.00
27220;BME280;45274;52.266;10.790;2023-11-21T09:34:26;100301.34;;;5.80;100.00
27220;BME280;45274;52.266;10.790;2023-11-21T09:36:52;100303.78;;;5.96;100.00
27220;BME280;45274;52.266;10.790;2023-11-21T09:39:18;100314.47;;;6.01;100.00
27220;BME280;45274;52.266;10.790;2023-11-21T09:41:48;100311.72;;;5.91;100.00
27220;BME280;45274;52.266;10.790;2023-11-21T09:44:18;100309.38;;;6.01;100.00
27220;BME280;45274;52.266;10.790;2023-11-21T09:46:44;100309.00;;;6.07;100.00
27220;BME280;45274;52.266;10.790;2023-11-21T09:49:13;100319.28;;;6.05;100.00
27220;BME280;45274;52.266;10.790;2023-11-21T09:51:42;100324.69;;;6.13;100.00
27220;BME280;45274;52.266;10.790;2023-11-21T09:54:10;100327.63;;;6.07;100.00
27220;BME280;45274;52.266;10.790;2023-11-21T09:56:37;100328.81;;;6.02;100.00
27220;BME280;45274;52.266;10.790;2023-11-21T09:59:03;100329.22;;;5.96;100.00
27220;BME280;45274;52.266;10.790;2023-11-21T10:01:33;100331.75;;;5.96;100.00
27220;BME280;45274;52.266;10.790;2023-11-21T10:04:00;100335.19;;;5.95;100.00
27220;BME280;45274;52.266;10.790;2023-11-21T10:06:26;100331.31;;;5.89;100.00
27220;BME280;45274;52.266;10.790;2023-11-21T10:08:53;100341.25;;;6.06;100.00
27220;BME280;45274;52.266;10.790;2023-11-21T10:11:24;100342.19;;;6.05;100.00
27220;BME280;45274;52.266;10.790;2023-11-21T10:13:52;100344.66;;;6.19;100.00
27220;BME280;45274;52.266;10.790;2023-11-21T10:16:19;100343.25;;;6.28;100.00
27220;BME280;45274;52.266;10.790;2023-11-21T10:18:48;100346.03;;;6.38;100.00
27220;BME280;45274;52.266;10.790;2023-11-21T10:21:18;100349.78;;;6.45;100.00
27220;BME280;45274;52.266;10.790;2023-11-21T10:23:43;100354.72;;;6.60;100.00
27220;BME280;45274;52.266;10.790;2023-11-21T10:26:11;100368.00;;;6.39;100.00
27220;BME280;45274;52.266;10.790;2023-11-21T10:29:00;100369.00;;;6.36;100.00
27220;BME280;45274;52.266;10.790;2023-11-21T10:31:33;100365.34;;;6.27;100.00
27220;BME280;45274;52.266;10.790;2023-11-21T10:34:14;100361.59;;;6.06;100.00
27220;BME280;45274;52.266;10.790;2023-11-21T10:36:40;100367.44;;;6.08;100.00
27220;BME280;45274;52.266;10.790;2023-11-21T10:39:06;100375.88;;;6.09;100.00
27220;BME280;45274;52.266;10.790;2023-11-21T10:41:32;100379.31;;;6.08;100.00
27220;BME280;45274;52.266;10.790;2023-11-21T10:43:57;100389.75;;;6.17;100.00
27220;BME280;45274;52.266;10.790;2023-11-21T10:46:22;100388.38;;;6.12;100.00
27220;BME280;45274;52.266;10.790;2023-11-21T10:48:53;100390.66;;;6.16;100.00
27220;BME280;45274;52.266;10.790;2023-11-21T10:51:20;100381.06;;;6.07;100.00
27220;BME280;45274;52.266;10.790;2023-11-21T10:53:46;100380.28;;;6.19;100.00
27220;BME280;45274;52.266;10.790;2023-11-21T10:56:14;100386.00;;;6.23;100.00
27220;BME280;45274;52.266;10.790;2023-11-21T10:58:45;100397.22;;;6.33;100.00
27220;BME280;45274;52.266;10.790;2023-11-21T11:01:11;100393.56;;;6.50;100.00
27220;BME280;45274;52.266;10.790;2023-11-21T11:03:37;100398.19;;;6.57;100.00
27220;BME280;45274;52.266;10.790;2023-11-21T11:06:06;100392.56;;;6.52;100.00
27220;BME280;45274;52.266;10.790;2023-11-21T11:08:37;100402.66;;;6.54;100.00
27220;BME280;45274;52.266;10.790;2023-11-21T11:11:06;100404.97;;;6.44;100.00
27220;BME280;45274;52.266;10.790;2023-11-21T11:13:32;100416.59;;;6.48;100.00
27220;BME280;45274;52.266;10.790;2023-11-21T11:15:59;100414.75;;;6.50;100.00
27220;BME280;45274;52.266;10.790;2023-11-21T11:18:29;100415.28;;;6.43;100.00
27220;BME280;45274;52.266;10.790;2023-11-21T11:21:00;100422.03;;;6.29;100.00
27220;BME280;45274;52.266;10.790;2023-11-21T11:24:05;100420.31;;;6.30;100.00
27220;BME280;45274;52.266;10.790;2023-11-21T11:26:58;100421.91;;;6.18;100.00
27220;BME280;45274;52.266;10.790;2023-11-21T11:37:47;100419.09;;;6.36;100.00
27220;BME280;45274;52.266;10.790;2023-11-21T11:40:13;100430.03;;;6.38;100.00
27220;BME280;45274;52.266;10.790;2023-11-21T11:42:38;100433.66;;;6.34;100.00
27220;BME280;45274;52.266;10.790;2023-11-21T11:45:22;100432.25;;;6.42;100.00
27220;BME280;45274;52.266;10.790;2023-11-21T11:47:48;100437.78;;;6.49;100.00
27220;BME280;45274;52.266;10.790;2023-11-21T11:50:13;100452.13;;;6.37;100.00
27220;BME280;45274;52.266;10.790;2023-11-21T11:52:52;100448.75;;;6.37;100.00
27220;BME280;45274;52.266;10.790;2023-11-21T11:55:24;100441.63;;;6.42;100.00
27220;BME280;45274;52.266;10.790;2023-11-21T11:57:52;100454.34;;;6.42;100.00
27220;BME280;45274;52.266;10.790;2023-11-21T12:02:55;100450.66;;;6.60;100.00
27220;BME280;45274;52.266;10.790;2023-11-21T12:05:26;100455.94;;;6.57;100.00
27220;BME280;45274;52.266;10.790;2023-11-21T12:07:55;100460.13;;;6.58;100.00
27220;BME280;45274;52.266;10.790;2023-11-21T12:10:24;100465.88;;;6.47;99.62
27220;BME280;45274;52.266;10.790;2023-11-21T12:12:52;100468.28;;;6.63;100.00
27220;BME280;45274;52.266;10.790;2023-11-21T12:15:19;100468.47;;;6.60;100.00
27220;BME280;45274;52.266;10.790;2023-11-21T12:17:45;100470.19;;;6.59;100.00
27220;BME280;45274;52.266;10.790;2023-11-21T12:20:14;100463.91;;;6.65;100.00
27220;BME280;45274;52.266;10.790;2023-11-21T12:23:00;100475.81;;;6.64;100.00
27220;BME280;45274;52.266;10.790;2023-11-21T12:25:30;100480.97;;;6.50;97.06
27220;BME280;45274;52.266;10.790;2023-11-21T12:27:58;100486.69;;;6.54;97.61
27220;BME280;45274;52.266;10.790;2023-11-21T12:30:26;100496.94;;;6.52;95.64
27220;BME280;45274;52.266;10.790;2023-11-21T12:32:55;100497.44;;;6.45;94.29
27220;BME280;45274;52.266;10.790;2023-11-21T12:35:26;100502.03;;;6.52;95.87
27220;BME280;45274;52.266;10.790;2023-11-21T12:37:52;100508.16;;;6.50;92.75
27220;BME280;45274;52.266;10.790;2023-11-21T12:40:19;100519.19;;;6.36;92.88
27220;BME280;45274;52.266;10.790;2023-11-21T12:42:46;100520.88;;;6.23;91.86
27220;BME280;45274;52.266;10.790;2023-11-21T12:47:43;100539.44;;;6.11;89.55
27220;BME280;45274;52.266;10.790;2023-11-21T12:50:09;100534.41;;;6.09;88.97
27220;BME280;45274;52.266;10.790;2023-11-21T12:52:45;100539.25;;;6.00;88.08
27220;BME280;45274;52.266;10.790;2023-11-21T12:55:14;100548.44;;;6.02;88.68
27220;BME280;45274;52.266;10.790;2023-11-21T12:57:44;100546.16;;;5.98;89.87